ePrivacy and GPDR Cookie Consent by Cookie Consent
EmailTwitter


Observations de surface / Royaume-Uni / EGLL (03772)

Régions: Québec | Canada | États-Unis | Europe | France | UK | Ailleurs
Station
Affichage
Infos & localisation pour EGLL (03772) | Aide pour décoder les METARs

Observations prises le 2022-07-07 à 01H50 UTC à LONDON/HEATHROW, UK (EGLL)

Etat du ciel: ciel variable.

Température: 18.0 Celsius

Point de rosée: 13.0 Celsius

Humidité relative: 73%

Vents: Ouest-nord-ouest à 13 km/h ou 7 noeuds.

Pression au niveau moyen de la mer: 102.50 kilopascals.

Visibilité horizontale: 6.21 milles terrestres ou 9.94 kilomètres.

Observation METAR:

EGLL 070150Z AUTO 29007KT 9999 FEW025 SCT034 18/13 Q1025 NOSIG=